Main page
METAR-TAF:

METAR-TAF

Airports :

Reykjavík Airport

Reykjavík, Iceland

latitude: 64-08N, longitude: 021-54W, elevation: 54 m

Current weather observation

The report was made 47 minutes ago, at 04:00 UTC
Wind 8 kt from the South/Southwest
Temperature 11°C
Humidity 76%
Pressure 1029 hPa
Visibility 10 km or more
no clouds below 1500 m and no cumulonimbus

METAR: BIRK 250400Z 20008KT CAVOK 11/07 Q1029

Time: 04:47 (04:47 UTC)

Forecast

The report was made 3 hours and 47 minutes ago, at 01:00 UTC
Forecast valid from 25 at 03 UTC to 26 at 03 UTC
Wind 12 kt from the West/Southwest
Visibility 10 km or more
Scattered clouds at a height of 1000 ft
Broken clouds at a height of 1500 ft
Overcast at a height of 2500 ft
light drizzle
Temporary
from 25 at 03 UTC to 26 at 03 UTC
Visibility: 5000 m
Broken clouds at a height of 500 ft
Overcast at a height of 1000 ft
light rain, drizzle, mist

TAF: BIRK 250100Z 2503/2603 24012KT 9999 -DZ SCT010 BKN015 OVC025 TX12/2518Z TN09/2504Z TEMPO 2503/2603 5000 -RADZ BR BKN005 OVC010

Weather observations and forecasts of more than 4000 airports (METAR and TAF reports).

The available stations are represented by yellow and red dots on the map.

Hover mouse over dot to see the name of the station.

Then click to see weather observations and forecasts.

To change the map : click on the green buttons with a black cross to zoom in, on the green button with a dash to zoom out, or on the green arrows for adjacent maps.


METAR-TAF: